sensor_id;sensor_type;location;lat;lon;timestamp;temperature;humidity
1055;DHT22;516;51.482;7.120;2023-07-20T00:04:22;16.80;1.00
1055;DHT22;516;51.482;7.120;2023-07-20T00:10:09;16.90;1.00
1055;DHT22;516;51.482;7.120;2023-07-20T00:15:57;16.90;1.00
1055;DHT22;516;51.482;7.120;2023-07-20T00:21:45;17.00;1.00
1055;DHT22;516;51.482;7.120;2023-07-20T00:27:33;16.90;1.00
1055;DHT22;516;51.482;7.120;2023-07-20T00:33:37;16.70;1.00
1055;DHT22;516;51.482;7.120;2023-07-20T00:39:24;16.60;1.00
1055;DHT22;516;51.482;7.120;2023-07-20T00:45:12;16.60;1.00
1055;DHT22;516;51.482;7.120;2023-07-20T00:51:00;16.40;1.00
1055;DHT22;516;51.482;7.120;2023-07-20T00:56:48;16.20;1.00
1055;DHT22;516;51.482;7.120;2023-07-20T01:02:37;16.20;1.00
1055;DHT22;516;51.482;7.120;2023-07-20T01:14:17;16.20;1.00
1055;DHT22;516;51.482;7.120;2023-07-20T01:20:10;16.20;1.00
1055;DHT22;516;51.482;7.120;2023-07-20T01:42:25;15.90;1.00
1055;DHT22;516;51.482;7.120;2023-07-20T01:48:13;15.90;1.00
1055;DHT22;516;51.482;7.120;2023-07-20T01:54:01;15.80;1.00
1055;DHT22;516;51.482;7.120;2023-07-20T01:59:48;15.90;1.00
1055;DHT22;516;51.482;7.120;2023-07-20T02:05:36;16.00;1.00
1055;DHT22;516;51.482;7.120;2023-07-20T02:11:24;15.90;1.00
1055;DHT22;516;51.482;7.120;2023-07-20T02:17:12;16.00;1.00
1055;DHT22;516;51.482;7.120;2023-07-20T02:23:00;16.00;1.00
1055;DHT22;516;51.482;7.120;2023-07-20T02:28:47;15.90;1.00
1055;DHT22;516;51.482;7.120;2023-07-20T02:37:57;15.80;1.00
1055;DHT22;516;51.482;7.120;2023-07-20T02:43:45;15.70;1.00
1055;DHT22;516;51.482;7.120;2023-07-20T02:49:33;15.60;1.00
1055;DHT22;516;51.482;7.120;2023-07-20T02:55:20;15.50;16.90
1055;DHT22;516;51.482;7.120;2023-07-20T03:01:08;15.50;76.60
1055;DHT22;516;51.482;7.120;2023-07-20T03:06:56;15.50;82.40
1055;DHT22;516;51.482;7.120;2023-07-20T03:12:44;15.40;90.00
1055;DHT22;516;51.482;7.120;2023-07-20T03:18:31;15.40;88.80
1055;DHT22;516;51.482;7.120;2023-07-20T03:24:19;15.30;96.30
1055;DHT22;516;51.482;7.120;2023-07-20T03:30:07;15.20;99.90
1055;DHT22;516;51.482;7.120;2023-07-20T03:35:52;15.20;99.90
1055;DHT22;516;51.482;7.120;2023-07-20T03:41:39;15.20;72.40
1055;DHT22;516;51.482;7.120;2023-07-20T03:47:27;15.20;51.90
1055;DHT22;516;51.482;7.120;2023-07-20T03:53:15;15.20;86.70
1055;DHT22;516;51.482;7.120;2023-07-20T03:59:04;15.30;99.90
1055;DHT22;516;51.482;7.120;2023-07-20T04:04:51;15.30;99.90
1055;DHT22;516;51.482;7.120;2023-07-20T04:10:42;15.40;95.10
1055;DHT22;516;51.482;7.120;2023-07-20T04:16:30;15.40;90.90
1055;DHT22;516;51.482;7.120;2023-07-20T04:22:18;15.40;99.90
1055;DHT22;516;51.482;7.120;2023-07-20T04:28:09;15.40;99.90
1055;DHT22;516;51.482;7.120;2023-07-20T04:37:56;15.30;99.90
1055;DHT22;516;51.482;7.120;2023-07-20T04:43:44;15.40;99.90
1055;DHT22;516;51.482;7.120;2023-07-20T04:49:32;15.40;99.90
1055;DHT22;516;51.482;7.120;2023-07-20T04:55:20;15.70;54.20
1055;DHT22;516;51.482;7.120;2023-07-20T05:01:08;15.80;1.00
1055;DHT22;516;51.482;7.120;2023-07-20T05:06:56;15.60;32.10
1055;DHT22;516;51.482;7.120;2023-07-20T05:12:43;15.60;35.20
1055;DHT22;516;51.482;7.120;2023-07-20T05:18:33;15.70;50.70
1055;DHT22;516;51.482;7.120;2023-07-20T05:24:21;15.80;25.70
1055;DHT22;516;51.482;7.120;2023-07-20T05:30:09;15.80;4.00
1055;DHT22;516;51.482;7.120;2023-07-20T05:35:53;15.80;1.00
1055;DHT22;516;51.482;7.120;2023-07-20T05:41:41;15.90;1.00
1055;DHT22;516;51.482;7.120;2023-07-20T05:47:28;15.90;1.00
1055;DHT22;516;51.482;7.120;2023-07-20T05:53:16;16.00;1.00
1055;DHT22;516;51.482;7.120;2023-07-20T05:59:04;16.00;1.00
1055;DHT22;516;51.482;7.120;2023-07-20T06:04:52;16.10;1.00
1055;DHT22;516;51.482;7.120;2023-07-20T06:10:39;16.80;1.00
1055;DHT22;516;51.482;7.120;2023-07-20T06:16:27;17.90;1.00
1055;DHT22;516;51.482;7.120;2023-07-20T06:22:15;18.00;1.00
1055;DHT22;516;51.482;7.120;2023-07-20T06:28:03;18.60;1.00
1055;DHT22;516;51.482;7.120;2023-07-20T06:33:52;18.40;1.00
1055;DHT22;516;51.482;7.120;2023-07-20T06:39:40;18.10;1.00
1055;DHT22;516;51.482;7.120;2023-07-20T06:45:28;18.30;1.00
1055;DHT22;516;51.482;7.120;2023-07-20T06:51:06;19.30;1.00
1055;DHT22;516;51.482;7.120;2023-07-20T06:56:50;19.30;1.00
1055;DHT22;516;51.482;7.120;2023-07-20T07:02:38;19.10;1.00
1055;DHT22;516;51.482;7.120;2023-07-20T07:08:26;18.80;1.00
1055;DHT22;516;51.482;7.120;2023-07-20T07:14:14;19.00;1.00
1055;DHT22;516;51.482;7.120;2023-07-20T07:20:03;19.00;1.00
1055;DHT22;516;51.482;7.120;2023-07-20T07:25:51;18.20;1.00
1055;DHT22;516;51.482;7.120;2023-07-20T07:31:39;17.40;1.00
1055;DHT22;516;51.482;7.120;2023-07-20T07:37:27;17.50;1.00
1055;DHT22;516;51.482;7.120;2023-07-20T07:43:15;17.00;1.00
1055;DHT22;516;51.482;7.120;2023-07-20T07:49:03;17.40;1.00
1055;DHT22;516;51.482;7.120;2023-07-20T08:04:42;18.20;1.00
1055;DHT22;516;51.482;7.120;2023-07-20T08:10:30;18.30;1.00
1055;DHT22;516;51.482;7.120;2023-07-20T08:16:18;18.20;1.00
1055;DHT22;516;51.482;7.120;2023-07-20T08:22:05;18.60;1.00
1055;DHT22;516;51.482;7.120;2023-07-20T08:27:53;18.30;1.00
1055;DHT22;516;51.482;7.120;2023-07-20T08:33:41;18.10;1.00
1055;DHT22;516;51.482;7.120;2023-07-20T08:39:30;19.70;1.00
1055;DHT22;516;51.482;7.120;2023-07-20T08:45:18;20.60;1.00
1055;DHT22;516;51.482;7.120;2023-07-20T08:51:05;21.60;1.00
1055;DHT22;516;51.482;7.120;2023-07-20T08:56:50;21.20;1.00
1055;DHT22;516;51.482;7.120;2023-07-20T09:02:39;20.70;1.00
1055;DHT22;516;51.482;7.120;2023-07-20T09:08:30;20.90;1.00
1055;DHT22;516;51.482;7.120;2023-07-20T09:14:17;22.70;1.00
1055;DHT22;516;51.482;7.120;2023-07-20T09:20:07;22.80;1.00
1055;DHT22;516;51.482;7.120;2023-07-20T09:25:58;23.20;1.00
1055;DHT22;516;51.482;7.120;2023-07-20T09:32:00;23.20;1.00
1055;DHT22;516;51.482;7.120;2023-07-20T09:37:58;21.00;1.00
1055;DHT22;516;51.482;7.120;2023-07-20T09:43:47;22.10;1.00
1055;DHT22;516;51.482;7.120;2023-07-20T09:49:41;22.20;1.00
1055;DHT22;516;51.482;7.120;2023-07-20T09:58:54;23.60;1.00
1055;DHT22;516;51.482;7.120;2023-07-20T10:04:43;21.90;1.00
1055;DHT22;516;51.482;7.120;2023-07-20T10:10:33;23.10;1.00
1055;DHT22;516;51.482;7.120;2023-07-20T10:16:34;23.90;1.00
1055;DHT22;516;51.482;7.120;2023-07-20T10:22:27;23.00;1.00
1055;DHT22;516;51.482;7.120;2023-07-20T10:28:16;24.80;1.00
1055;DHT22;516;51.482;7.120;2023-07-20T10:34:05;23.30;1.00
1055;DHT22;516;51.482;7.120;2023-07-20T10:39:55;23.90;1.00
1055;DHT22;516;51.482;7.120;2023-07-20T10:45:52;24.50;1.00
1055;DHT22;516;51.482;7.120;2023-07-20T10:51:44;23.80;1.00
1055;DHT22;516;51.482;7.120;2023-07-20T11:01:28;24.80;1.00
1055;DHT22;516;51.482;7.120;2023-07-20T11:07:35;23.80;1.00
1055;DHT22;516;51.482;7.120;2023-07-20T11:17:15;23.40;1.00
1055;DHT22;516;51.482;7.120;2023-07-20T11:23:02;23.50;1.00
1055;DHT22;516;51.482;7.120;2023-07-20T11:28:50;24.50;1.00
1055;DHT22;516;51.482;7.120;2023-07-20T11:34:38;25.00;1.00
1055;DHT22;516;51.482;7.120;2023-07-20T11:40:25;25.10;1.00
1055;DHT22;516;51.482;7.120;2023-07-20T11:46:12;24.40;1.00
1055;DHT22;516;51.482;7.120;2023-07-20T11:51:59;24.90;1.00
1055;DHT22;516;51.482;7.120;2023-07-20T12:01:10;24.80;1.00
1055;DHT22;516;51.482;7.120;2023-07-20T12:06:59;23.90;1.00
1055;DHT22;516;51.482;7.120;2023-07-20T12:12:47;24.70;1.00
1055;DHT22;516;51.482;7.120;2023-07-20T12:18:35;25.50;1.00
1055;DHT22;516;51.482;7.120;2023-07-20T12:24:23;24.80;1.00
1055;DHT22;516;51.482;7.120;2023-07-20T12:30:11;25.60;1.00
1055;DHT22;516;51.482;7.120;2023-07-20T12:36:00;24.80;1.00
1055;DHT22;516;51.482;7.120;2023-07-20T12:41:48;25.00;1.00
1055;DHT22;516;51.482;7.120;2023-07-20T12:47:18;24.00;1.00
1055;DHT22;516;51.482;7.120;2023-07-20T12:53:06;25.80;1.00
1055;DHT22;516;51.482;7.120;2023-07-20T12:58:53;25.80;1.00
1055;DHT22;516;51.482;7.120;2023-07-20T13:04:41;24.30;1.00
1055;DHT22;516;51.482;7.120;2023-07-20T13:10:29;24.10;1.00
1055;DHT22;516;51.482;7.120;2023-07-20T13:16:17;23.60;1.00
1055;DHT22;516;51.482;7.120;2023-07-20T13:22:05;24.30;1.00
1055;DHT22;516;51.482;7.120;2023-07-20T13:27:52;23.60;1.00
1055;DHT22;516;51.482;7.120;2023-07-20T13:33:40;25.00;1.00
1055;DHT22;516;51.482;7.120;2023-07-20T13:39:29;26.20;1.00
1055;DHT22;516;51.482;7.120;2023-07-20T13:45:16;25.70;1.00
1055;DHT22;516;51.482;7.120;2023-07-20T13:51:04;24.90;1.00
1055;DHT22;516;51.482;7.120;2023-07-20T14:06:58;25.50;1.00
1055;DHT22;516;51.482;7.120;2023-07-20T14:12:46;23.80;1.00
1055;DHT22;516;51.482;7.120;2023-07-20T14:18:34;24.10;1.00
1055;DHT22;516;51.482;7.120;2023-07-20T14:24:21;23.20;1.00
1055;DHT22;516;51.482;7.120;2023-07-20T14:30:12;23.50;1.00
1055;DHT22;516;51.482;7.120;2023-07-20T14:36:01;23.50;1.00
1055;DHT22;516;51.482;7.120;2023-07-20T14:41:50;24.40;1.00
1055;DHT22;516;51.482;7.120;2023-07-20T14:47:38;26.20;1.00
1055;DHT22;516;51.482;7.120;2023-07-20T14:53:26;26.50;1.00
1055;DHT22;516;51.482;7.120;2023-07-20T14:59:06;25.60;1.00
1055;DHT22;516;51.482;7.120;2023-07-20T15:04:53;24.90;1.00
1055;DHT22;516;51.482;7.120;2023-07-20T15:10:41;24.80;1.00
1055;DHT22;516;51.482;7.120;2023-07-20T15:16:30;25.90;1.00
1055;DHT22;516;51.482;7.120;2023-07-20T15:22:18;25.90;1.00
1055;DHT22;516;51.482;7.120;2023-07-20T15:28:06;23.40;1.00
1055;DHT22;516;51.482;7.120;2023-07-20T15:33:54;23.40;1.00
1055;DHT22;516;51.482;7.120;2023-07-20T15:39:42;23.70;1.00
1055;DHT22;516;51.482;7.120;2023-07-20T15:45:30;23.40;1.00
1055;DHT22;516;51.482;7.120;2023-07-20T15:51:17;23.90;1.00
1055;DHT22;516;51.482;7.120;2023-07-20T16:06:56;25.40;1.00
1055;DHT22;516;51.482;7.120;2023-07-20T16:12:44;26.00;1.00
1055;DHT22;516;51.482;7.120;2023-07-20T16:18:32;26.40;1.00
1055;DHT22;516;51.482;7.120;2023-07-20T16:24:20;26.10;1.00
1055;DHT22;516;51.482;7.120;2023-07-20T16:30:08;24.30;1.00
1055;DHT22;516;51.482;7.120;2023-07-20T16:35:56;25.00;1.00
1055;DHT22;516;51.482;7.120;2023-07-20T16:41:44;23.30;1.00
1055;DHT22;516;51.482;7.120;2023-07-20T16:47:31;23.20;1.00
1055;DHT22;516;51.482;7.120;2023-07-20T16:53:19;25.40;1.00
1055;DHT22;516;51.482;7.120;2023-07-20T16:59:07;25.20;1.00
1055;DHT22;516;51.482;7.120;2023-07-20T17:04:54;24.30;1.00
1055;DHT22;516;51.482;7.120;2023-07-20T17:10:42;23.70;1.00
1055;DHT22;516;51.482;7.120;2023-07-20T17:16:30;22.90;1.00
1055;DHT22;516;51.482;7.120;2023-07-20T17:22:18;22.50;1.00
1055;DHT22;516;51.482;7.120;2023-07-20T17:28:06;22.30;1.00
1055;DHT22;516;51.482;7.120;2023-07-20T17:33:54;22.80;1.00
1055;DHT22;516;51.482;7.120;2023-07-20T17:39:42;22.60;1.00
1055;DHT22;516;51.482;7.120;2023-07-20T17:45:30;22.80;1.00
1055;DHT22;516;51.482;7.120;2023-07-20T17:51:17;22.60;1.00
1055;DHT22;516;51.482;7.120;2023-07-20T18:06:56;22.00;1.00
1055;DHT22;516;51.482;7.120;2023-07-20T18:12:45;21.90;1.00
1055;DHT22;516;51.482;7.120;2023-07-20T18:18:33;21.80;1.00
1055;DHT22;516;51.482;7.120;2023-07-20T18:24:21;21.40;1.00
1055;DHT22;516;51.482;7.120;2023-07-20T18:30:09;21.30;1.00
1055;DHT22;516;51.482;7.120;2023-07-20T18:35:57;21.10;1.00
1055;DHT22;516;51.482;7.120;2023-07-20T18:41:44;20.90;1.00
1055;DHT22;516;51.482;7.120;2023-07-20T18:47:13;20.80;1.00
1055;DHT22;516;51.482;7.120;2023-07-20T18:53:01;20.70;1.00
1055;DHT22;516;51.482;7.120;2023-07-20T19:02:13;20.70;1.00
1055;DHT22;516;51.482;7.120;2023-07-20T19:08:01;20.60;1.00
1055;DHT22;516;51.482;7.120;2023-07-20T19:13:50;20.50;1.00
1055;DHT22;516;51.482;7.120;2023-07-20T19:19:38;20.40;1.00
1055;DHT22;516;51.482;7.120;2023-07-20T19:25:26;20.30;1.00
1055;DHT22;516;51.482;7.120;2023-07-20T19:31:14;20.20;1.00
1055;DHT22;516;51.482;7.120;2023-07-20T19:37:02;20.10;1.00
1055;DHT22;516;51.482;7.120;2023-07-20T19:42:51;20.10;1.00
1055;DHT22;516;51.482;7.120;2023-07-20T19:48:38;20.00;1.00
1055;DHT22;516;51.482;7.120;2023-07-20T19:54:26;20.00;1.00
1055;DHT22;516;51.482;7.120;2023-07-20T20:00:08;19.90;1.00
1055;DHT22;516;51.482;7.120;2023-07-20T20:05:59;19.90;1.00
1055;DHT22;516;51.482;7.120;2023-07-20T20:11:47;19.80;1.00
1055;DHT22;516;51.482;7.120;2023-07-20T20:17:35;19.80;1.00
1055;DHT22;516;51.482;7.120;2023-07-20T20:26:44;19.70;1.00
1055;DHT22;516;51.482;7.120;2023-07-20T20:32:31;19.60;1.00
1055;DHT22;516;51.482;7.120;2023-07-20T20:38:23;19.50;1.00
1055;DHT22;516;51.482;7.120;2023-07-20T20:54:08;19.30;1.00
1055;DHT22;516;51.482;7.120;2023-07-20T20:59:57;19.40;1.00
1055;DHT22;516;51.482;7.120;2023-07-20T21:05:45;19.40;1.00
1055;DHT22;516;51.482;7.120;2023-07-20T21:11:33;19.40;1.00
1055;DHT22;516;51.482;7.120;2023-07-20T21:17:20;19.20;1.00
1055;DHT22;516;51.482;7.120;2023-07-20T21:23:08;18.70;1.00
1055;DHT22;516;51.482;7.120;2023-07-20T21:28:56;18.20;1.00
1055;DHT22;516;51.482;7.120;2023-07-20T21:34:44;17.50;1.00
1055;DHT22;516;51.482;7.120;2023-07-20T21:40:32;16.80;1.00
1055;DHT22;516;51.482;7.120;2023-07-20T21:46:20;16.40;1.00
1055;DHT22;516;51.482;7.120;2023-07-20T21:52:08;16.10;1.00
1055;DHT22;516;51.482;7.120;2023-07-20T22:07:58;16.10;1.00
1055;DHT22;516;51.482;7.120;2023-07-20T22:13:49;16.10;1.00
1055;DHT22;516;51.482;7.120;2023-07-20T22:19:38;16.00;1.00
1055;DHT22;516;51.482;7.120;2023-07-20T22:25:26;15.90;1.00
1055;DHT22;516;51.482;7.120;2023-07-20T22:31:13;15.90;1.00
1055;DHT22;516;51.482;7.120;2023-07-20T22:37:02;15.90;1.00
1055;DHT22;516;51.482;7.120;2023-07-20T22:42:52;15.80;1.00
1055;DHT22;516;51.482;7.120;2023-07-20T22:48:39;15.70;1.00
1055;DHT22;516;51.482;7.120;2023-07-20T22:54:27;15.80;1.00
1055;DHT22;516;51.482;7.120;2023-07-20T23:00:08;15.70;1.00
1055;DHT22;516;51.482;7.120;2023-07-20T23:05:56;15.70;1.00
1055;DHT22;516;51.482;7.120;2023-07-20T23:11:44;15.70;1.00
1055;DHT22;516;51.482;7.120;2023-07-20T23:17:33;15.60;1.00
1055;DHT22;516;51.482;7.120;2023-07-20T23:23:20;15.50;1.00
1055;DHT22;516;51.482;7.120;2023-07-20T23:29:08;15.40;24.10
1055;DHT22;516;51.482;7.120;2023-07-20T23:34:56;15.30;15.20
1055;DHT22;516;51.482;7.120;2023-07-20T23:40:44;15.20;4.00
1055;DHT22;516;51.482;7.120;2023-07-20T23:46:31;15.10;1.00
1055;DHT22;516;51.482;7.120;2023-07-20T23:52:21;15.00;1.00
